createdAt,value
2018-08-31T00:00:46.431Z,78.80
2018-08-31T00:03:19.443Z,79.10
2018-08-31T00:05:58.957Z,79.00
2018-08-31T00:09:48.603Z,79.20
2018-08-31T00:12:38.903Z,79.00
2018-08-31T00:15:07.579Z,79.30
2018-08-31T00:17:36.495Z,80.00
2018-08-31T00:20:07.275Z,79.90
2018-08-31T00:22:35.563Z,80.40
2018-08-31T00:25:15.102Z,80.00
2018-08-31T00:27:54.640Z,79.60
2018-08-31T00:30:34.511Z,79.60
2018-08-31T00:33:14.111Z,79.70
2018-08-31T00:38:32.285Z,79.40
2018-08-31T00:41:13.636Z,79.80
2018-08-31T00:45:50.809Z,79.50
2018-08-31T00:48:19.154Z,80.00
2018-08-31T00:50:47.486Z,80.20
2018-08-31T00:53:15.777Z,80.50
2018-08-31T00:55:44.379Z,80.20
2018-08-31T00:58:22.672Z,80.00
2018-08-31T01:00:51.143Z,80.40
2018-08-31T01:03:19.379Z,80.70
2018-08-31T01:05:47.700Z,80.40
2018-08-31T01:08:16.020Z,80.70
2018-08-31T01:10:44.371Z,80.80
2018-08-31T01:13:12.664Z,80.50
2018-08-31T01:15:41.062Z,80.80
2018-08-31T01:18:09.388Z,80.90
2018-08-31T01:20:38.357Z,80.40
2018-08-31T01:23:06.736Z,81.40
2018-08-31T01:25:35.102Z,81.10
2018-08-31T01:28:04.007Z,80.80
2018-08-31T01:30:33.396Z,80.70
2018-08-31T01:33:01.727Z,80.50
2018-08-31T01:35:30.135Z,80.70
2018-08-31T01:37:58.616Z,80.90
2018-08-31T01:40:26.899Z,80.40
2018-08-31T01:42:55.184Z,80.50
2018-08-31T01:45:23.534Z,80.90
2018-08-31T01:47:51.835Z,80.60
2018-08-31T01:50:20.141Z,81.30
2018-08-31T01:52:48.504Z,80.80
2018-08-31T01:55:16.930Z,81.00
2018-08-31T01:57:45.435Z,81.30
2018-08-31T02:00:13.771Z,81.30
2018-08-31T02:02:46.496Z,81.70
2018-08-31T02:05:14.848Z,81.60
2018-08-31T02:07:43.120Z,81.80
2018-08-31T02:10:11.975Z,82.00
2018-08-31T02:12:40.274Z,81.60
2018-08-31T02:15:08.648Z,82.00
2018-08-31T02:17:36.944Z,82.30
2018-08-31T02:20:07.327Z,81.70
2018-08-31T02:22:35.614Z,81.60
2018-08-31T02:25:03.946Z,82.90
2018-08-31T02:27:32.270Z,82.60
2018-08-31T02:30:00.559Z,82.20
2018-08-31T02:32:28.819Z,82.30
2018-08-31T02:34:57.094Z,82.20
2018-08-31T02:37:25.343Z,81.50
2018-08-31T02:39:53.665Z,82.00
2018-08-31T02:42:21.976Z,81.70
2018-08-31T02:44:50.268Z,82.70
2018-08-31T02:47:18.650Z,82.10
2018-08-31T02:49:46.958Z,81.80
2018-08-31T02:52:15.247Z,82.20
2018-08-31T02:54:43.583Z,82.70
2018-08-31T02:57:11.927Z,82.60
2018-08-31T02:59:40.216Z,82.20
2018-08-31T03:02:08.555Z,82.20
2018-08-31T03:04:37.044Z,82.10
2018-08-31T03:07:05.536Z,82.40
2018-08-31T03:09:33.835Z,82.20
2018-08-31T03:12:02.157Z,82.10
2018-08-31T03:14:30.555Z,82.10
2018-08-31T03:16:58.883Z,82.10
2018-08-31T03:19:27.225Z,82.20
2018-08-31T03:21:55.576Z,82.40
2018-08-31T03:24:23.959Z,82.00
2018-08-31T03:26:52.205Z,82.40
2018-08-31T03:29:20.600Z,82.50
2018-08-31T03:31:48.925Z,82.70
2018-08-31T03:34:17.207Z,82.50
2018-08-31T03:36:45.547Z,82.60
2018-08-31T03:39:13.835Z,83.00
2018-08-31T03:41:42.131Z,82.50
2018-08-31T03:44:10.428Z,82.70
2018-08-31T03:46:38.839Z,82.80
2018-08-31T03:49:07.148Z,83.10
2018-08-31T03:51:35.494Z,83.30
2018-08-31T03:54:03.815Z,83.30
2018-08-31T03:56:32.123Z,83.30
2018-08-31T03:59:00.451Z,84.20
2018-08-31T04:01:28.907Z,83.90
2018-08-31T04:04:02.437Z,83.70
2018-08-31T04:06:30.802Z,83.90
2018-08-31T04:08:59.115Z,83.80
2018-08-31T04:11:27.484Z,83.60
2018-08-31T04:13:55.759Z,84.10
2018-08-31T04:16:24.134Z,83.80
2018-08-31T04:18:52.545Z,84.00
2018-08-31T04:21:33.098Z,83.70
2018-08-31T04:24:01.415Z,84.10
2018-08-31T04:26:29.703Z,84.00
2018-08-31T04:28:58.103Z,84.00
2018-08-31T04:31:26.466Z,84.50
2018-08-31T04:33:54.902Z,84.20
2018-08-31T04:36:23.222Z,84.30
2018-08-31T04:38:51.510Z,84.20
2018-08-31T04:41:26.222Z,84.50
2018-08-31T04:43:54.632Z,84.70
2018-08-31T04:46:23.704Z,84.40
2018-08-31T04:48:51.983Z,85.10
2018-08-31T04:51:20.359Z,85.40
2018-08-31T04:53:48.631Z,85.00
2018-08-31T04:56:16.929Z,84.90
2018-08-31T04:58:45.651Z,84.70
2018-08-31T05:01:14.035Z,84.60
2018-08-31T05:03:42.424Z,84.50
2018-08-31T05:06:10.747Z,84.70
2018-08-31T05:08:39.044Z,85.10
2018-08-31T05:11:07.366Z,85.20
2018-08-31T05:13:36.072Z,85.10
2018-08-31T05:16:04.502Z,85.30
2018-08-31T05:18:32.787Z,85.50
2018-08-31T05:21:01.075Z,85.20
2018-08-31T05:23:29.423Z,85.00
2018-08-31T05:25:57.695Z,85.20
2018-08-31T05:28:26.022Z,84.70
2018-08-31T05:30:54.318Z,84.80
2018-08-31T05:33:22.614Z,84.70
2018-08-31T05:35:50.891Z,85.20
2018-08-31T05:38:19.171Z,85.00
2018-08-31T05:40:47.479Z,85.00
2018-08-31T05:43:15.807Z,85.00
2018-08-31T05:45:44.043Z,84.70
2018-08-31T05:48:12.399Z,85.20
2018-08-31T05:50:40.700Z,86.20
2018-08-31T05:53:09.035Z,85.10
2018-08-31T05:55:37.671Z,85.50
2018-08-31T05:58:06.067Z,85.30
2018-08-31T06:00:34.440Z,84.80
2018-08-31T06:03:02.910Z,84.90
2018-08-31T06:05:31.245Z,85.50
2018-08-31T06:07:59.581Z,85.70
2018-08-31T06:10:27.895Z,84.30
2018-08-31T06:12:56.288Z,84.60
2018-08-31T06:15:24.621Z,84.50
2018-08-31T06:17:52.863Z,83.70
2018-08-31T06:20:21.246Z,83.60
2018-08-31T06:22:49.524Z,81.90
2018-08-31T06:25:17.855Z,82.10
2018-08-31T06:27:46.244Z,82.10
2018-08-31T06:30:14.542Z,81.60
2018-08-31T06:32:42.932Z,80.80
2018-08-31T06:35:11.211Z,82.70
2018-08-31T06:37:39.548Z,81.30
2018-08-31T06:40:07.980Z,80.30
2018-08-31T06:42:36.300Z,80.80
2018-08-31T06:45:04.676Z,79.80
2018-08-31T06:47:33.112Z,79.20
2018-08-31T06:50:01.420Z,79.50
2018-08-31T06:52:30.205Z,79.30
2018-08-31T06:54:58.544Z,79.10
2018-08-31T06:57:26.825Z,77.20
2018-08-31T06:59:55.136Z,77.80
2018-08-31T07:02:23.736Z,78.00
2018-08-31T07:04:52.017Z,77.80
2018-08-31T07:07:20.328Z,77.90
2018-08-31T07:09:48.659Z,76.80
2018-08-31T07:12:17.087Z,77.00
2018-08-31T07:14:45.323Z,74.90
2018-08-31T07:17:13.667Z,76.00
2018-08-31T07:19:41.982Z,74.70
2018-08-31T07:22:16.299Z,76.80
2018-08-31T07:24:44.608Z,76.10
2018-08-31T07:27:13.304Z,74.30
2018-08-31T07:29:41.556Z,74.90
2018-08-31T07:32:09.872Z,74.10
2018-08-31T07:34:38.852Z,73.80
2018-08-31T07:37:07.180Z,74.70
2018-08-31T07:39:35.531Z,75.00
2018-08-31T07:42:03.881Z,75.40
2018-08-31T07:44:32.329Z,75.30
2018-08-31T07:47:00.636Z,73.10
2018-08-31T07:49:29.063Z,73.70
2018-08-31T07:51:57.340Z,73.50
2018-08-31T07:54:25.636Z,73.90
2018-08-31T07:56:53.895Z,72.30
2018-08-31T07:59:22.270Z,73.00
2018-08-31T08:01:50.742Z,71.30
2018-08-31T08:04:18.999Z,70.00
2018-08-31T08:06:47.355Z,71.50
2018-08-31T08:09:15.685Z,69.70
2018-08-31T08:11:44.011Z,70.60
2018-08-31T08:14:12.363Z,69.80
2018-08-31T08:16:40.660Z,69.60
2018-08-31T08:19:09.056Z,68.50
2018-08-31T08:21:37.516Z,68.50
2018-08-31T08:24:06.446Z,69.20
2018-08-31T08:26:34.956Z,67.50
2018-08-31T08:29:03.311Z,67.80
2018-08-31T08:31:32.057Z,66.70
2018-08-31T08:34:00.408Z,65.30
2018-08-31T08:36:28.753Z,67.30
2018-08-31T08:38:58.139Z,65.70
2018-08-31T08:41:26.459Z,65.20
2018-08-31T08:43:54.781Z,65.10
2018-08-31T08:46:23.095Z,65.80
2018-08-31T08:48:51.419Z,64.30
2018-08-31T08:51:19.768Z,63.50
2018-08-31T08:53:48.064Z,62.70
2018-08-31T08:56:16.392Z,63.80
2018-08-31T08:58:44.653Z,63.10
2018-08-31T09:01:12.925Z,63.40
2018-08-31T09:03:41.243Z,65.80
2018-08-31T09:06:09.612Z,63.90
2018-08-31T09:08:37.903Z,62.70
2018-08-31T09:11:06.279Z,62.20
2018-08-31T09:13:34.681Z,61.50
2018-08-31T09:16:02.997Z,62.50
2018-08-31T09:18:31.397Z,63.40
2018-08-31T09:21:00.181Z,62.70
2018-08-31T09:23:28.480Z,62.00
2018-08-31T09:25:59.157Z,62.30
2018-08-31T09:28:27.512Z,62.30
2018-08-31T09:30:55.843Z,62.30
2018-08-31T09:33:24.179Z,62.40
2018-08-31T09:35:52.510Z,62.70
2018-08-31T09:38:20.824Z,62.40
2018-08-31T09:40:49.143Z,62.70
2018-08-31T09:43:17.535Z,62.00
2018-08-31T09:45:45.864Z,61.50
2018-08-31T09:48:14.324Z,60.70
2018-08-31T09:50:42.627Z,61.50
2018-08-31T09:53:10.927Z,61.50
2018-08-31T09:55:39.272Z,61.30
2018-08-31T09:58:07.608Z,60.50
2018-08-31T10:00:41.207Z,61.60
2018-08-31T10:03:15.049Z,61.40
2018-08-31T10:05:43.390Z,60.70
2018-08-31T10:08:11.695Z,61.60
2018-08-31T10:10:40.144Z,62.30
2018-08-31T10:13:08.399Z,62.60
2018-08-31T10:15:36.947Z,63.00
2018-08-31T10:18:05.333Z,63.60
2018-08-31T10:20:33.657Z,63.50
2018-08-31T10:23:01.992Z,62.70
2018-08-31T10:25:30.312Z,62.60
2018-08-31T10:27:58.591Z,63.20
2018-08-31T10:30:26.923Z,63.90
2018-08-31T10:32:55.228Z,63.80
2018-08-31T10:35:24.579Z,64.00
2018-08-31T10:37:52.977Z,65.00
2018-08-31T10:40:21.289Z,64.70
2018-08-31T10:42:49.547Z,64.00
2018-08-31T10:45:18.008Z,64.40
2018-08-31T10:47:46.320Z,64.80
2018-08-31T10:50:14.632Z,64.60
2018-08-31T10:52:42.909Z,65.10
2018-08-31T10:55:11.200Z,66.40
2018-08-31T10:57:39.524Z,65.90
2018-08-31T11:00:07.973Z,65.50
2018-08-31T11:02:36.363Z,65.30
2018-08-31T11:05:04.675Z,65.70
2018-08-31T11:07:32.944Z,65.40
2018-08-31T11:10:01.245Z,65.10
2018-08-31T11:12:29.566Z,64.90
2018-08-31T11:14:57.935Z,64.60
2018-08-31T11:17:26.252Z,64.90
2018-08-31T11:19:57.739Z,64.90
2018-08-31T11:22:26.103Z,63.90
2018-08-31T11:24:54.392Z,64.30
2018-08-31T11:27:22.676Z,65.10
2018-08-31T11:29:50.968Z,64.40
2018-08-31T11:32:19.363Z,64.20
2018-08-31T11:34:48.241Z,62.90
2018-08-31T11:37:16.543Z,63.20
2018-08-31T11:39:44.918Z,62.70
2018-08-31T11:42:13.241Z,60.70
2018-08-31T11:44:41.601Z,61.40
2018-08-31T11:47:09.948Z,61.80
2018-08-31T11:49:38.210Z,61.90
2018-08-31T11:52:06.550Z,62.30
2018-08-31T11:54:34.867Z,61.70
2018-08-31T11:57:03.179Z,61.70
2018-08-31T11:59:31.598Z,61.60
2018-08-31T12:01:59.944Z,60.90
2018-08-31T12:04:28.575Z,61.00
2018-08-31T12:06:56.889Z,59.30
2018-08-31T12:09:25.220Z,57.10
2018-08-31T12:11:53.568Z,58.40
2018-08-31T12:14:21.847Z,57.90
2018-08-31T12:16:50.117Z,58.30
2018-08-31T12:19:18.476Z,57.90
2018-08-31T12:21:47.851Z,57.20
2018-08-31T12:24:16.395Z,57.70
2018-08-31T12:26:44.760Z,56.70
2018-08-31T12:29:13.107Z,54.50
2018-08-31T12:31:41.448Z,56.20
2018-08-31T12:34:09.765Z,55.40
2018-08-31T12:36:38.066Z,55.60
2018-08-31T12:39:08.931Z,56.10
2018-08-31T12:41:37.330Z,55.60
2018-08-31T12:44:05.985Z,55.80
2018-08-31T12:46:36.521Z,56.30
2018-08-31T12:49:04.984Z,55.50
2018-08-31T12:51:33.388Z,55.90
2018-08-31T12:54:01.772Z,56.50
2018-08-31T12:56:30.536Z,56.00
2018-08-31T12:58:58.850Z,53.50
2018-08-31T13:01:27.168Z,55.20
2018-08-31T13:03:55.423Z,51.40
2018-08-31T13:06:23.729Z,51.00
2018-08-31T13:08:51.972Z,52.20
2018-08-31T13:11:20.317Z,52.20
2018-08-31T13:13:49.188Z,51.70
2018-08-31T13:16:17.743Z,52.40
2018-08-31T13:18:46.163Z,51.70
2018-08-31T13:21:14.470Z,52.30
2018-08-31T13:23:42.819Z,52.10
2018-08-31T13:26:11.180Z,51.30
2018-08-31T13:28:39.619Z,51.30
2018-08-31T13:31:08.001Z,51.20
2018-08-31T13:33:36.295Z,51.90
2018-08-31T13:36:04.565Z,51.40
2018-08-31T13:38:32.853Z,52.70
2018-08-31T13:41:01.192Z,53.40
2018-08-31T13:43:30.026Z,52.50
2018-08-31T13:45:58.351Z,52.50
2018-08-31T13:48:26.669Z,54.00
2018-08-31T13:50:55.000Z,53.00
2018-08-31T13:53:23.508Z,52.80
2018-08-31T13:55:51.808Z,54.00
2018-08-31T13:58:20.133Z,53.10
2018-08-31T14:00:48.463Z,51.60
2018-08-31T14:03:17.010Z,52.00
2018-08-31T14:05:45.281Z,54.40
2018-08-31T14:08:13.703Z,52.10
2018-08-31T14:10:42.181Z,52.70
2018-08-31T14:13:10.468Z,52.90
2018-08-31T14:15:38.787Z,51.30
2018-08-31T14:18:07.127Z,52.40
2018-08-31T14:20:35.450Z,51.30
2018-08-31T14:23:03.863Z,53.10
2018-08-31T14:25:32.188Z,52.40
2018-08-31T14:28:00.456Z,50.80
2018-08-31T14:30:28.947Z,51.90
2018-08-31T14:32:57.267Z,50.60
2018-08-31T14:35:25.599Z,50.50
2018-08-31T14:37:53.876Z,50.50
2018-08-31T14:40:22.183Z,50.90
2018-08-31T14:42:50.488Z,49.30
2018-08-31T14:45:18.823Z,48.20
2018-08-31T14:47:47.156Z,49.20
2018-08-31T14:50:15.634Z,48.40
2018-08-31T14:52:50.204Z,47.70
2018-08-31T14:55:18.527Z,48.30
2018-08-31T14:57:46.872Z,48.50
2018-08-31T15:00:15.176Z,50.10
2018-08-31T15:02:43.504Z,49.40
2018-08-31T15:05:11.876Z,48.90
2018-08-31T15:07:40.130Z,49.00
2018-08-31T15:10:08.590Z,50.00
2018-08-31T15:12:36.882Z,48.40
2018-08-31T15:15:05.531Z,48.30
2018-08-31T15:17:33.848Z,48.80
2018-08-31T15:20:02.191Z,48.60
2018-08-31T15:22:30.638Z,48.80
2018-08-31T15:24:58.918Z,47.70
2018-08-31T15:27:29.390Z,49.50
2018-08-31T15:29:57.863Z,48.80
2018-08-31T15:32:26.148Z,47.90
2018-08-31T15:34:54.464Z,47.80
2018-08-31T15:37:22.918Z,50.10
2018-08-31T15:39:51.196Z,49.70
2018-08-31T15:42:19.725Z,49.70
2018-08-31T15:44:51.308Z,49.20
2018-08-31T15:47:20.019Z,49.70
2018-08-31T15:49:48.407Z,50.10
2018-08-31T15:52:17.052Z,49.60
2018-08-31T15:54:45.400Z,48.60
2018-08-31T15:57:20.132Z,48.50
2018-08-31T15:59:48.903Z,49.20
2018-08-31T16:02:19.320Z,50.60
2018-08-31T16:04:47.684Z,49.80
2018-08-31T16:07:16.423Z,50.00
2018-08-31T16:09:44.716Z,48.80
2018-08-31T16:12:13.077Z,50.80
2018-08-31T16:14:41.392Z,49.90
2018-08-31T16:17:09.670Z,51.00
2018-08-31T16:19:56.422Z,50.50
2018-08-31T16:22:24.678Z,50.50
2018-08-31T16:24:53.119Z,50.00
2018-08-31T16:27:22.524Z,50.60
2018-08-31T16:29:51.560Z,51.20
2018-08-31T16:32:19.966Z,51.00
2018-08-31T16:34:52.059Z,51.10
2018-08-31T16:37:20.357Z,50.70
2018-08-31T16:39:48.749Z,50.80
2018-08-31T16:42:17.037Z,50.20
2018-08-31T16:44:45.430Z,50.30
2018-08-31T16:47:13.746Z,51.10
2018-08-31T16:49:42.201Z,51.00
2018-08-31T16:52:15.794Z,51.30
2018-08-31T16:54:44.108Z,50.30
2018-08-31T16:57:31.447Z,51.30
2018-08-31T16:59:59.771Z,51.20
2018-08-31T17:02:33.892Z,51.50
2018-08-31T17:05:02.162Z,51.10
2018-08-31T17:07:30.550Z,51.90
2018-08-31T17:09:58.910Z,52.00
2018-08-31T17:12:27.207Z,51.70
2018-08-31T17:14:55.513Z,51.50
2018-08-31T17:17:24.879Z,52.10
2018-08-31T17:19:53.253Z,51.80
2018-08-31T17:22:22.695Z,51.50
2018-08-31T17:24:51.035Z,52.40
2018-08-31T17:27:28.716Z,52.30
2018-08-31T17:30:14.219Z,52.50
2018-08-31T17:32:47.895Z,53.00
2018-08-31T17:35:24.933Z,52.20
2018-08-31T17:37:53.319Z,51.70
2018-08-31T17:40:21.753Z,51.90
2018-08-31T17:42:55.099Z,53.00
2018-08-31T17:45:23.394Z,53.20
2018-08-31T17:47:57.253Z,53.30
2018-08-31T17:50:31.891Z,53.80
2018-08-31T17:53:00.263Z,53.20
2018-08-31T17:55:28.680Z,52.70
2018-08-31T17:57:59.089Z,54.60
2018-08-31T18:00:27.634Z,54.40
2018-08-31T18:02:55.944Z,53.60
2018-08-31T18:05:25.233Z,54.80
2018-08-31T18:07:53.552Z,53.10
2018-08-31T18:10:21.819Z,54.20
2018-08-31T18:12:50.105Z,55.60
2018-08-31T18:15:18.453Z,55.70
2018-08-31T18:17:46.803Z,56.30
2018-08-31T18:20:15.095Z,56.50
2018-08-31T18:22:43.420Z,57.10
2018-08-31T18:25:18.351Z,55.60
2018-08-31T18:27:46.692Z,57.80
2018-08-31T18:30:15.051Z,58.20
2018-08-31T18:32:43.379Z,58.20
2018-08-31T18:35:11.880Z,58.30
2018-08-31T18:37:40.459Z,58.40
2018-08-31T18:40:08.810Z,59.00
2018-08-31T18:42:37.053Z,58.50
2018-08-31T18:45:15.562Z,59.30
2018-08-31T18:47:44.271Z,59.30
2018-08-31T18:50:13.692Z,59.60
2018-08-31T18:52:42.219Z,59.10
2018-08-31T18:55:14.861Z,59.60
2018-08-31T18:57:48.100Z,59.00
2018-08-31T19:00:21.206Z,60.10
2018-08-31T19:02:56.364Z,60.00
2018-08-31T19:05:25.142Z,60.10
2018-08-31T19:07:54.390Z,59.70
2018-08-31T19:10:23.229Z,60.20
2018-08-31T19:12:52.441Z,60.40
2018-08-31T19:15:21.498Z,60.00
2018-08-31T19:17:50.812Z,60.30
2018-08-31T19:20:20.280Z,61.20
2018-08-31T19:22:49.467Z,60.80
2018-08-31T19:25:19.326Z,61.40
2018-08-31T19:27:48.296Z,61.40
2018-08-31T19:30:17.419Z,61.40
2018-08-31T19:32:46.815Z,61.20
2018-08-31T19:35:18.118Z,61.20
2018-08-31T19:37:47.461Z,61.80
2018-08-31T19:40:16.703Z,61.80
2018-08-31T19:42:45.774Z,61.80
2018-08-31T19:45:14.858Z,61.80
2018-08-31T19:47:43.711Z,62.10
2018-08-31T19:50:12.421Z,62.40
2018-08-31T19:52:41.151Z,62.60
2018-08-31T19:55:10.331Z,62.60
2018-08-31T19:57:39.063Z,62.70
2018-08-31T20:00:07.981Z,62.90
2018-08-31T20:02:36.608Z,62.90
2018-08-31T20:05:06.322Z,63.40
2018-08-31T20:07:35.278Z,63.60
2018-08-31T20:10:04.005Z,63.70
2018-08-31T20:12:32.433Z,63.80
2018-08-31T20:15:00.902Z,63.60
2018-08-31T20:17:51.782Z,64.10
2018-08-31T20:20:20.260Z,64.20
2018-08-31T20:22:48.755Z,64.20
2018-08-31T20:25:17.215Z,64.50
2018-08-31T20:27:45.850Z,64.70
2018-08-31T20:30:16.710Z,64.70
2018-08-31T20:32:45.175Z,64.80
2018-08-31T20:35:13.740Z,65.30
2018-08-31T20:37:46.535Z,65.30
2018-08-31T20:40:15.016Z,65.50
2018-08-31T20:42:43.907Z,65.40
2018-08-31T20:45:12.419Z,65.60
2018-08-31T20:47:41.065Z,65.60
2018-08-31T20:50:09.607Z,65.70
2018-08-31T20:52:37.915Z,66.20
2018-08-31T20:55:06.979Z,66.40
2018-08-31T20:57:35.584Z,66.20
2018-08-31T21:00:04.496Z,66.50
2018-08-31T21:02:33.560Z,66.20
2018-08-31T21:05:02.007Z,66.60
2018-08-31T21:07:30.967Z,66.70
2018-08-31T21:09:59.510Z,66.80
2018-08-31T21:12:27.933Z,66.90
2018-08-31T21:14:57.473Z,67.10
2018-08-31T21:17:26.057Z,66.90
2018-08-31T21:19:54.632Z,67.30
2018-08-31T21:22:23.981Z,67.40
2018-08-31T21:24:52.247Z,67.50
2018-08-31T21:27:20.959Z,67.80
2018-08-31T21:29:49.279Z,67.70
2018-08-31T21:32:17.637Z,67.40
2018-08-31T21:34:45.936Z,67.50
2018-08-31T21:37:14.206Z,67.70
2018-08-31T21:39:47.971Z,67.90
2018-08-31T21:42:16.340Z,68.10
2018-08-31T21:44:44.539Z,68.20
2018-08-31T21:47:12.798Z,68.30
2018-08-31T21:49:41.064Z,68.40
2018-08-31T21:52:09.372Z,68.60
2018-08-31T21:54:37.753Z,68.50
2018-08-31T21:57:06.343Z,68.90
2018-08-31T21:59:34.691Z,68.50
2018-08-31T22:02:03.147Z,68.60
2018-08-31T22:04:31.432Z,69.10
2018-08-31T22:06:59.813Z,69.30
2018-08-31T22:09:28.183Z,69.30
2018-08-31T22:11:56.436Z,69.10
2018-08-31T22:14:24.771Z,69.60
2018-08-31T22:16:53.075Z,69.80
2018-08-31T22:19:21.487Z,70.20
2018-08-31T22:21:49.747Z,70.00
2018-08-31T22:24:18.048Z,70.20
2018-08-31T22:26:46.537Z,70.20
2018-08-31T22:29:15.195Z,70.60
2018-08-31T22:31:43.418Z,70.70
2018-08-31T22:34:12.480Z,70.40
2018-08-31T22:36:40.778Z,70.60
2018-08-31T22:39:14.651Z,70.50
2018-08-31T22:41:42.999Z,70.60
2018-08-31T22:44:11.423Z,70.90
2018-08-31T22:46:39.778Z,70.70
2018-08-31T22:49:08.155Z,70.90
2018-08-31T22:51:36.455Z,70.90
2018-08-31T22:54:04.777Z,70.80
2018-08-31T22:56:33.075Z,71.00
2018-08-31T22:59:01.375Z,71.10
2018-08-31T23:01:29.707Z,71.30
2018-08-31T23:03:58.047Z,71.60
2018-08-31T23:06:26.391Z,71.60
2018-08-31T23:08:55.600Z,71.30
2018-08-31T23:11:23.939Z,71.60
2018-08-31T23:13:52.280Z,71.70
2018-08-31T23:16:20.591Z,72.00
2018-08-31T23:18:49.892Z,72.30
2018-08-31T23:21:18.183Z,72.10
2018-08-31T23:23:48.990Z,72.10
2018-08-31T23:26:17.784Z,72.40
2018-08-31T23:28:46.171Z,72.50
2018-08-31T23:31:14.615Z,72.20
2018-08-31T23:33:42.996Z,72.30
2018-08-31T23:36:11.342Z,72.40
2018-08-31T23:38:39.655Z,72.50
2018-08-31T23:41:08.086Z,72.40
2018-08-31T23:43:36.392Z,72.50
2018-08-31T23:46:04.664Z,73.00
2018-08-31T23:48:33.072Z,73.20
2018-08-31T23:51:01.399Z,73.20
2018-08-31T23:53:29.795Z,73.20
2018-08-31T23:56:03.065Z,73.40
2018-08-31T23:58:31.352Z,73.20
